Time,TemperatureF,DewpointF,PressureIn,WindDirection,WindDirectionDegrees,WindSpeedMPH,WindSpeedGustMPH,Humidity,HourlyPrecipIn,Conditions,Clouds,dailyrainin,SoftwareType,DateUTC
2013-09-03 00:00:00,69.1,65.7,28.18,West,270,0.0,0.0,89,0.00,CLR,,0.00,WeatherDisplay:10.37,2013-09-03 04:00:00,
2013-09-03 00:10:00,69.1,65.8,28.18,West,270,0.0,0.0,89,0.00,CLR,,0.00,WeatherDisplay:10.37,2013-09-03 04:10:00,
2013-09-03 00:20:00,69.4,66.4,28.18,West,270,0.0,0.0,90,0.00,CLR,,0.00,WeatherDisplay:10.37,2013-09-03 04:20:00,
2013-09-03 00:30:00,69.4,67.0,28.15,North,0,0.0,0.0,92,0.00,CLR,,0.00,WeatherDisplay:10.37,2013-09-03 04:30:00,
2013-09-03 00:40:00,69.3,66.8,28.15,NNE,23,0.0,0.0,92,0.00,CLR,,0.00,WeatherDisplay:10.37,2013-09-03 04:40:00,
2013-09-03 00:50:00,69.1,67.0,28.15,NE,43,2.0,2.0,93,0.00,CLR,,0.00,WeatherDisplay:10.37,2013-09-03 04:50:00,
2013-09-03 01:00:00,69.3,67.5,28.15,NE,47,2.0,2.0,94,0.00,CLR,,0.00,WeatherDisplay:10.37,2013-09-03 05:00:00,
2013-09-03 01:10:00,69.3,67.5,28.15,NE,36,0.0,0.0,94,0.00,CLR,,0.00,WeatherDisplay:10.37,2013-09-03 05:10:00,
2013-09-03 01:20:00,69.4,67.6,28.15,SSW,202,0.0,0.0,94,0.00,CLR,,0.00,WeatherDisplay:10.37,2013-09-03 05:20:00,
2013-09-03 01:30:00,69.4,67.3,28.12,North,352,0.0,2.0,93,0.00,CLR,,0.00,WeatherDisplay:10.37,2013-09-03 05:30:00,
2013-09-03 01:40:00,69.3,67.1,28.12,NNE,31,0.0,0.0,93,0.00,CLR,,0.00,WeatherDisplay:10.37,2013-09-03 05:40:00,
2013-09-03 01:50:00,69.3,67.5,28.12,North,11,1.0,3.0,94,0.00,CLR,,0.00,WeatherDisplay:10.37,2013-09-03 05:50:00,
2013-09-03 02:00:00,69.6,68.1,28.12,West,267,0.0,2.0,95,0.00,CLR,,0.00,WeatherDisplay:10.37,2013-09-03 06:00:00,
2013-09-03 02:10:00,69.8,68.3,28.12,SW,227,2.0,5.0,95,0.00,CLR,,0.00,WeatherDisplay:10.37,2013-09-03 06:10:00,
2013-09-03 02:20:00,69.3,67.8,28.12,SW,219,5.0,10.0,95,0.00,CLR,,0.00,WeatherDisplay:10.37,2013-09-03 06:20:00,
2013-09-03 02:30:00,69.1,66.3,28.09,SW,223,1.0,6.0,91,0.00,CLR,,0.00,WeatherDisplay:10.37,2013-09-03 06:30:00,
2013-09-03 02:40:00,68.4,63.7,28.09,SW,228,2.0,6.0,85,0.00,CLR,,0.00,WeatherDisplay:10.37,2013-09-03 06:40:00,
2013-09-03 02:50:00,67.9,62.6,28.09,SSW,202,2.0,6.0,83,0.00,CLR,,0.00,WeatherDisplay:10.37,2013-09-03 06:50:00,
2013-09-03 03:00:00,67.6,61.9,28.09,SSW,206,1.0,8.0,82,0.00,CLR,,0.00,WeatherDisplay:10.37,2013-09-03 07:00:00,
2013-09-03 03:10:00,67.1,61.4,28.09,SSW,198,2.0,4.0,82,0.00,CLR,,0.00,WeatherDisplay:10.37,2013-09-03 07:10:00,
2013-09-03 03:20:00,66.6,58.8,28.09,SW,219,2.0,5.0,76,0.00,CLR,,0.00,WeatherDisplay:10.37,2013-09-03 07:20:00,
2013-09-03 03:30:00,66.2,59.5,28.09,West,276,1.0,3.0,79,0.00,CLR,,0.00,WeatherDisplay:10.37,2013-09-03 07:30:00,
2013-09-03 03:40:00,65.8,59.5,28.09,West,265,1.0,2.0,80,0.00,CLR,,0.00,WeatherDisplay:10.37,2013-09-03 07:40:00,
2013-09-03 03:50:00,65.7,60.0,28.09,West,268,0.0,2.0,82,0.00,CLR,,0.00,WeatherDisplay:10.37,2013-09-03 07:50:00,
2013-09-03 04:00:00,65.5,60.2,28.07,SW,216,0.0,3.0,83,0.00,CLR,,0.00,WeatherDisplay:10.37,2013-09-03 08:00:00,
2013-09-03 04:10:00,65.3,62.0,28.07,NNE,24,1.0,2.0,89,0.00,CLR,,0.00,WeatherDisplay:10.37,2013-09-03 08:10:00,
2013-09-03 04:20:00,65.4,62.0,28.09,WSW,237,2.0,2.0,89,0.00,CLR,,0.00,WeatherDisplay:10.37,2013-09-03 08:20:00,
2013-09-03 04:30:00,65.5,62.2,28.09,SW,223,1.0,3.0,89,0.00,CLR,,0.00,WeatherDisplay:10.37,2013-09-03 08:30:00,
2013-09-03 04:40:00,65.5,62.2,28.09,SW,222,1.0,5.0,89,0.00,CLR,,0.00,WeatherDisplay:10.37,2013-09-03 08:40:00,
2013-09-03 04:50:00,65.5,62.2,28.09,SW,233,0.0,1.0,89,0.00,CLR,,0.00,WeatherDisplay:10.37,2013-09-03 08:50:00,
2013-09-03 05:00:00,65.5,62.2,28.09,SSW,202,0.0,2.0,89,0.00,CLR,,0.00,WeatherDisplay:10.37,2013-09-03 09:00:00,
2013-09-03 05:10:00,65.5,62.5,28.09,SW,236,0.0,2.0,90,0.00,CLR,,0.00,WeatherDisplay:10.37,2013-09-03 09:10:00,
2013-09-03 05:20:00,65.1,61.8,28.09,WSW,242,0.0,2.0,89,0.00,CLR,,0.00,WeatherDisplay:10.37,2013-09-03 09:20:00,
2013-09-03 05:30:00,65.1,61.8,28.09,SSW,212,2.0,3.0,89,0.00,CLR,,0.00,WeatherDisplay:10.37,2013-09-03 09:30:00,
2013-09-03 05:40:00,65.0,62.0,28.09,SSW,204,0.0,2.0,90,0.00,CLR,,0.00,WeatherDisplay:10.37,2013-09-03 09:40:00,
2013-09-03 05:50:00,64.8,61.4,28.09,SSW,202,0.0,0.0,89,0.00,CLR,,0.00,WeatherDisplay:10.37,2013-09-03 09:50:00,
2013-09-03 06:00:00,64.8,61.8,28.09,SW,227,0.0,0.0,90,0.00,CLR,,0.00,WeatherDisplay:10.37,2013-09-03 10:00:00,
2013-09-03 06:10:00,64.6,61.6,28.09,West,268,0.0,0.0,90,0.00,CLR,,0.00,WeatherDisplay:10.37,2013-09-03 10:10:00,
2013-09-03 06:20:00,64.4,61.4,28.12,West,268,0.0,0.0,90,0.00,CLR,,0.00,WeatherDisplay:10.37,2013-09-03 10:20:00,
2013-09-03 06:30:00,64.6,61.6,28.09,SW,228,0.0,2.0,90,0.00,CLR,,0.00,WeatherDisplay:10.37,2013-09-03 10:30:00,
2013-09-03 06:40:00,64.8,62.7,28.09,SSW,210,2.0,5.0,93,0.00,CLR,,0.00,WeatherDisplay:10.37,2013-09-03 10:40:00,
2013-09-03 06:50:00,65.2,63.4,28.09,SSW,202,2.0,6.0,94,0.00,CLR,,0.00,WeatherDisplay:10.37,2013-09-03 10:50:00,
2013-09-03 07:00:00,65.3,63.8,28.09,SSW,202,2.0,3.0,95,0.00,CLR,,0.00,WeatherDisplay:10.37,2013-09-03 11:00:00,
2013-09-03 07:10:00,65.3,63.5,28.09,SSW,192,1.0,5.0,94,0.00,CLR,,0.00,WeatherDisplay:10.37,2013-09-03 11:10:00,
2013-09-03 07:20:00,65.5,63.7,28.09,SSW,206,2.0,3.0,94,0.00,CLR,,0.00,WeatherDisplay:10.37,2013-09-03 11:20:00,
2013-09-03 07:30:00,65.5,63.7,28.09,SW,230,0.0,3.0,94,0.00,CLR,,0.00,WeatherDisplay:10.37,2013-09-03 11:30:00,
2013-09-03 07:40:00,65.7,63.9,28.09,SSW,208,0.0,0.0,94,0.00,CLR,,0.00,WeatherDisplay:10.37,2013-09-03 11:40:00,
2013-09-03 07:50:00,65.7,63.9,28.12,SSW,198,2.0,4.0,94,0.00,CLR,,0.00,WeatherDisplay:10.37,2013-09-03 11:50:00,
2013-09-03 08:00:00,65.7,64.2,28.09,SW,222,2.0,5.0,95,0.00,CLR,,0.00,WeatherDisplay:10.37,2013-09-03 12:00:00,
2013-09-03 08:10:00,65.8,65.0,28.09,SSW,207,2.0,6.0,97,0.00,CLR,,0.00,WeatherDisplay:10.37,2013-09-03 12:10:00,
2013-09-03 08:20:00,65.9,65.9,28.09,SW,214,2.0,6.0,100,0.00,CLR,,0.00,WeatherDisplay:10.37,2013-09-03 12:20:00,
2013-09-03 08:30:00,66.2,66.2,28.09,SSW,213,2.0,6.0,100,0.00,CLR,,0.00,WeatherDisplay:10.37,2013-09-03 12:30:00,
2013-09-03 08:40:00,66.4,66.4,28.09,SSW,211,2.0,5.0,100,0.00,CLR,,0.00,WeatherDisplay:10.37,2013-09-03 12:40:00,
2013-09-03 08:50:00,66.6,66.6,28.09,SW,222,1.0,3.0,100,0.00,CLR,,0.00,WeatherDisplay:10.37,2013-09-03 12:50:00,
2013-09-03 09:00:00,66.6,65.7,28.12,WSW,237,2.0,5.0,97,0.00,CLR,,0.00,WeatherDisplay:10.37,2013-09-03 13:00:00,
2013-09-03 09:10:00,66.6,65.1,28.12,SW,233,1.0,5.0,95,0.00,CLR,,0.00,WeatherDisplay:10.37,2013-09-03 13:10:00,
2013-09-03 09:20:00,66.9,65.4,28.09,SSW,203,0.0,0.0,95,0.00,CLR,,0.00,WeatherDisplay:10.37,2013-09-03 13:20:00,
2013-09-03 09:30:00,67.2,65.7,28.12,SSW,204,1.0,3.0,95,0.00,CLR,,0.00,WeatherDisplay:10.37,2013-09-03 13:30:00,
2013-09-03 09:40:00,67.4,65.6,28.12,SSW,192,2.0,4.0,94,0.00,CLR,,0.00,WeatherDisplay:10.37,2013-09-03 13:40:00,
2013-09-03 09:50:00,67.5,65.4,28.12,SSW,200,2.0,4.0,93,0.00,CLR,,0.00,WeatherDisplay:10.37,2013-09-03 13:50:00,
2013-09-03 10:00:00,67.5,65.4,28.12,SSW,198,1.0,4.0,93,0.00,CLR,,0.00,WeatherDisplay:10.37,2013-09-03 14:00:00,
2013-09-03 10:10:00,67.5,65.1,28.12,South,183,3.0,5.0,92,0.00,CLR,,0.00,WeatherDisplay:10.37,2013-09-03 14:10:00,
2013-09-03 10:20:00,67.5,65.1,28.12,SSW,207,1.0,6.0,92,0.00,CLR,,0.00,WeatherDisplay:10.37,2013-09-03 14:20:00,
2013-09-03 10:30:00,67.4,65.0,28.15,SSW,204,3.0,6.0,92,0.00,CLR,,0.00,WeatherDisplay:10.37,2013-09-03 14:30:00,
2013-09-03 10:40:00,67.6,65.2,28.15,SSW,202,2.0,5.0,92,0.00,CLR,,0.00,WeatherDisplay:10.37,2013-09-03 14:40:00,
2013-09-03 10:50:00,67.8,65.4,28.15,SSW,202,2.0,5.0,92,0.00,CLR,,0.00,WeatherDisplay:10.37,2013-09-03 14:50:00,
2013-09-03 11:00:00,67.6,65.2,28.15,SSW,204,3.0,5.0,92,0.00,CLR,,0.00,WeatherDisplay:10.37,2013-09-03 15:00:00,
2013-09-03 11:10:00,68.1,65.7,28.15,SSW,209,3.0,6.0,92,0.00,CLR,,0.00,WeatherDisplay:10.37,2013-09-03 15:10:00,
2013-09-03 11:20:00,68.7,66.6,28.15,SSW,200,3.0,5.0,93,0.00,CLR,,0.00,WeatherDisplay:10.37,2013-09-03 15:20:00,
2013-09-03 11:30:00,68.7,66.3,28.15,SSW,205,3.0,6.0,92,0.00,CLR,,0.00,WeatherDisplay:10.37,2013-09-03 15:30:00,
2013-09-03 11:40:00,69.4,67.0,28.15,SSW,205,3.0,5.0,92,0.00,CLR,,0.00,WeatherDisplay:10.37,2013-09-03 15:40:00,
2013-09-03 11:50:00,70.6,68.2,28.15,SSW,203,0.0,4.0,92,0.00,CLR,,0.00,WeatherDisplay:10.37,2013-09-03 15:50:00,
2013-09-03 12:00:00,71.4,67.3,28.15,SSW,201,1.0,5.0,87,0.00,CLR,,0.00,WeatherDisplay:10.37,2013-09-03 16:00:00,
2013-09-03 12:10:00,71.5,66.4,28.15,SSW,204,2.0,5.0,84,0.00,CLR,,0.00,WeatherDisplay:10.37,2013-09-03 16:10:00,
2013-09-03 12:20:00,72.1,65.6,28.15,SSW,199,2.0,5.0,80,0.00,CLR,,0.00,WeatherDisplay:10.37,2013-09-03 16:20:00,
2013-09-03 12:30:00,73.2,66.7,28.15,SSW,192,1.0,5.0,80,0.00,CLR,,0.00,WeatherDisplay:10.37,2013-09-03 16:30:00,
2013-09-03 12:40:00,73.9,63.5,28.15,SSW,203,6.0,8.0,70,0.00,CLR,,0.00,WeatherDisplay:10.37,2013-09-03 16:40:00,
2013-09-03 12:50:00,75.0,62.9,28.15,SSW,205,5.0,10.0,66,0.00,CLR,,0.00,WeatherDisplay:10.37,2013-09-03 16:50:00,
2013-09-03 13:00:00,75.0,60.6,28.15,SSW,198,1.0,5.0,61,0.00,CLR,,0.00,WeatherDisplay:10.37,2013-09-03 17:00:00,
2013-09-03 13:10:00,75.7,59.9,28.15,SSW,205,2.0,7.0,58,0.00,CLR,,0.00,WeatherDisplay:10.37,2013-09-03 17:10:00,
2013-09-03 13:20:00,75.7,59.4,28.15,SSW,199,1.0,6.0,57,0.00,CLR,,0.00,WeatherDisplay:10.37,2013-09-03 17:20:00,
2013-09-03 13:30:00,76.7,59.3,28.15,SSW,198,3.0,6.0,55,0.00,CLR,,0.00,WeatherDisplay:10.37,2013-09-03 17:30:00,
2013-09-03 13:40:00,76.7,57.7,28.15,SSW,196,3.0,9.0,52,0.00,CLR,,0.00,WeatherDisplay:10.37,2013-09-03 17:40:00,
2013-09-03 13:50:00,76.7,58.8,28.15,SSW,205,3.0,7.0,54,0.00,CLR,,0.00,WeatherDisplay:10.37,2013-09-03 17:50:00,
2013-09-03 14:00:00,76.9,56.2,28.15,SSW,195,3.0,8.0,49,0.00,CLR,,0.00,WeatherDisplay:10.37,2013-09-03 18:00:00,
2013-09-03 14:10:00,77.4,56.2,28.15,SW,229,3.0,7.0,48,0.00,CLR,,0.00,WeatherDisplay:10.37,2013-09-03 18:10:00,
2013-09-03 14:20:00,76.8,56.2,28.18,South,184,2.0,7.0,49,0.00,CLR,,0.00,WeatherDisplay:10.37,2013-09-03 18:20:00,
2013-09-03 14:30:00,78.4,58.2,28.15,SSW,202,5.0,6.0,50,0.00,CLR,,0.00,WeatherDisplay:10.37,2013-09-03 18:30:00,
2013-09-03 14:40:00,79.6,54.5,28.15,SW,217,2.0,7.0,42,0.00,CLR,,0.00,WeatherDisplay:10.37,2013-09-03 18:40:00,
2013-09-03 14:50:00,79.0,53.3,28.18,SSW,213,1.0,7.0,41,0.00,CLR,,0.00,WeatherDisplay:10.37,2013-09-03 18:50:00,
2013-09-03 15:00:00,79.9,54.7,28.18,WSW,246,2.0,6.0,42,0.00,CLR,,0.00,WeatherDisplay:10.37,2013-09-03 19:00:00,
2013-09-03 15:10:00,80.3,53.8,28.18,SSW,200,6.0,9.0,40,0.00,CLR,,0.00,WeatherDisplay:10.37,2013-09-03 19:10:00,
2013-09-03 15:20:00,81.9,55.9,28.18,SW,216,3.0,7.0,41,0.00,CLR,,0.00,WeatherDisplay:10.37,2013-09-03 19:20:00,
2013-09-03 15:30:00,82.1,49.3,28.18,SW,224,2.0,8.0,32,0.00,CLR,,0.00,WeatherDisplay:10.37,2013-09-03 19:30:00,
2013-09-03 15:40:00,81.9,49.9,28.18,WSW,243,3.0,9.0,33,0.00,CLR,,0.00,WeatherDisplay:10.37,2013-09-03 19:40:00,
2013-09-03 15:50:00,82.4,50.4,28.21,WNW,300,1.0,5.0,33,0.00,CLR,,0.00,WeatherDisplay:10.37,2013-09-03 19:50:00,
2013-09-03 16:00:00,82.3,47.8,28.21,NW,305,2.0,5.0,30,0.00,CLR,,0.00,WeatherDisplay:10.37,2013-09-03 20:00:00,
2013-09-03 16:10:00,80.6,49.6,28.21,West,279,2.0,5.0,34,0.00,CLR,,0.00,WeatherDisplay:10.37,2013-09-03 20:10:00,
2013-09-03 16:20:00,82.1,49.3,28.21,NNW,329,1.0,3.0,32,0.00,CLR,,0.00,WeatherDisplay:10.37,2013-09-03 20:20:00,
2013-09-03 16:30:00,81.9,46.5,28.21,West,281,2.0,4.0,29,0.00,CLR,,0.00,WeatherDisplay:10.37,2013-09-03 20:30:00,
2013-09-03 16:40:00,81.9,47.4,28.21,West,276,2.0,5.0,30,0.00,CLR,,0.00,WeatherDisplay:10.37,2013-09-03 20:40:00,
2013-09-03 16:50:00,82.0,47.5,28.21,WNW,282,2.0,4.0,30,0.00,CLR,,0.00,WeatherDisplay:10.37,2013-09-03 20:50:00,
2013-09-03 17:00:00,82.3,46.8,28.21,WNW,303,1.0,4.0,29,0.00,CLR,,0.00,WeatherDisplay:10.37,2013-09-03 21:00:00,
2013-09-03 17:10:00,82.2,46.8,28.21,WNW,302,2.0,6.0,29,0.00,CLR,,0.00,WeatherDisplay:10.37,2013-09-03 21:10:00,
2013-09-03 17:20:00,82.2,47.7,28.21,NW,309,2.0,5.0,30,0.00,CLR,,0.00,WeatherDisplay:10.37,2013-09-03 21:20:00,
2013-09-03 17:30:00,81.7,44.4,28.21,NW,315,2.0,5.0,27,0.00,CLR,,0.00,WeatherDisplay:10.37,2013-09-03 21:30:00,
2013-09-03 17:40:00,82.2,44.9,28.21,WNW,301,2.0,3.0,27,0.00,CLR,,0.00,WeatherDisplay:10.37,2013-09-03 21:40:00,
2013-09-03 17:50:00,81.8,45.5,28.24,WNW,296,2.0,3.0,28,0.00,CLR,,0.00,WeatherDisplay:10.37,2013-09-03 21:50:00,
2013-09-03 18:00:00,80.7,44.5,28.24,WNW,287,1.0,3.0,28,0.00,CLR,,0.00,WeatherDisplay:10.37,2013-09-03 22:00:00,
2013-09-03 18:10:00,80.8,46.4,28.24,NW,321,2.0,5.0,30,0.00,CLR,,0.00,WeatherDisplay:10.37,2013-09-03 22:10:00,
2013-09-03 18:20:00,80.7,46.4,28.24,NW,314,1.0,3.0,30,0.00,CLR,,0.00,WeatherDisplay:10.37,2013-09-03 22:20:00,
2013-09-03 18:30:00,79.8,45.6,28.21,North,5,1.0,4.0,30,0.00,CLR,,0.00,WeatherDisplay:10.37,2013-09-03 22:30:00,
2013-09-03 18:40:00,79.7,46.4,28.21,NW,324,2.0,4.0,31,0.00,CLR,,0.00,WeatherDisplay:10.37,2013-09-03 22:40:00,
2013-09-03 18:50:00,78.9,45.7,28.21,NNW,331,2.0,6.0,31,0.00,CLR,,0.00,WeatherDisplay:10.37,2013-09-03 22:50:00,
2013-09-03 19:00:00,77.8,44.7,28.21,NNW,342,1.0,3.0,31,0.00,CLR,,0.00,WeatherDisplay:10.37,2013-09-03 23:00:00,
2013-09-03 19:10:00,76.5,44.4,28.21,North,3,1.0,2.0,32,0.00,CLR,,0.00,WeatherDisplay:10.37,2013-09-03 23:10:00,
2013-09-03 19:20:00,75.1,44.9,28.21,NNE,20,0.0,2.0,34,0.00,CLR,,0.00,WeatherDisplay:10.37,2013-09-03 23:20:00,
2013-09-03 19:30:00,73.8,44.4,28.21,North,353,0.0,2.0,35,0.00,CLR,,0.00,WeatherDisplay:10.37,2013-09-03 23:30:00,
2013-09-03 19:40:00,72.0,46.3,28.21,NNE,33,1.0,2.0,40,0.00,CLR,,0.00,WeatherDisplay:10.37,2013-09-03 23:40:00,
2013-09-03 19:50:00,70.8,46.6,28.21,NE,53,1.0,2.0,42,0.00,CLR,,0.00,WeatherDisplay:10.37,2013-09-03 23:50:00,
2013-09-03 20:00:00,69.8,46.9,28.21,NNE,14,0.0,1.0,44,0.00,CLR,,0.00,WeatherDisplay:10.37,2013-09-04 00:00:00,
2013-09-03 20:10:00,68.9,46.7,28.21,WNW,301,0.0,1.0,45,0.00,CLR,,0.00,WeatherDisplay:10.37,2013-09-04 00:10:00,
2013-09-03 20:20:00,68.2,47.7,28.21,WSW,244,0.0,1.0,48,0.00,CLR,,0.00,WeatherDisplay:10.37,2013-09-04 00:20:00,
2013-09-03 20:30:00,67.4,49.6,28.21,NW,321,0.0,2.0,53,0.00,CLR,,0.00,WeatherDisplay:10.37,2013-09-04 00:30:00,
2013-09-03 20:40:00,66.7,50.1,28.21,WSW,242,0.0,1.0,55,0.00,CLR,,0.00,WeatherDisplay:10.37,2013-09-04 00:40:00,
2013-09-03 20:50:00,66.2,51.4,28.21,SE,126,0.0,1.0,59,0.00,CLR,,0.00,WeatherDisplay:10.37,2013-09-04 00:50:00,
2013-09-03 21:00:00,65.5,51.7,28.21,ENE,68,0.0,0.0,61,0.00,CLR,,0.00,WeatherDisplay:10.37,2013-09-04 01:00:00,
2013-09-03 21:10:00,65.3,52.4,28.21,NNE,12,0.0,0.0,63,0.00,CLR,,0.00,WeatherDisplay:10.37,2013-09-04 01:10:00,
2013-09-03 21:20:00,64.8,52.3,28.24,NNW,340,0.0,0.0,64,0.00,CLR,,0.00,WeatherDisplay:10.37,2013-09-04 01:20:00,
2013-09-03 21:30:00,64.6,53.4,28.24,ENE,57,1.0,3.0,67,0.00,CLR,,0.00,WeatherDisplay:10.37,2013-09-04 01:30:00,
2013-09-03 21:40:00,64.4,53.2,28.24,NNW,348,0.0,1.0,67,0.00,CLR,,0.00,WeatherDisplay:10.37,2013-09-04 01:40:00,
2013-09-03 21:50:00,64.0,54.1,28.24,NNW,338,0.0,0.0,70,0.00,CLR,,0.00,WeatherDisplay:10.37,2013-09-04 01:50:00,
2013-09-03 22:00:00,63.9,53.9,28.24,NNE,12,0.0,0.0,70,0.00,CLR,,0.00,WeatherDisplay:10.37,2013-09-04 02:00:00,
2013-09-03 22:10:00,63.6,53.6,28.24,NNE,22,0.0,0.0,70,0.00,CLR,,0.00,WeatherDisplay:10.37,2013-09-04 02:10:00,
2013-09-03 22:20:00,63.3,53.8,28.24,North,0,0.0,0.0,71,0.00,CLR,,0.00,WeatherDisplay:10.37,2013-09-04 02:20:00,
2013-09-03 22:30:00,63.1,53.9,28.24,North,0,0.0,0.0,72,0.00,CLR,,0.00,WeatherDisplay:10.37,2013-09-04 02:30:00,
2013-09-03 22:40:00,63.0,55.3,28.24,NNE,25,1.0,2.0,76,0.00,CLR,,0.00,WeatherDisplay:10.37,2013-09-04 02:40:00,
2013-09-03 22:50:00,62.8,55.8,28.24,ENE,61,0.0,2.0,78,0.00,CLR,,0.00,WeatherDisplay:10.37,2013-09-04 02:50:00,
2013-09-03 23:00:00,62.6,54.9,28.24,NE,35,0.0,0.0,76,0.00,CLR,,0.00,WeatherDisplay:10.37,2013-09-04 03:00:00,
2013-09-03 23:10:00,62.6,55.6,28.24,ENE,68,0.0,2.0,78,0.00,CLR,,0.00,WeatherDisplay:10.37,2013-09-04 03:10:00,
2013-09-03 23:20:00,62.4,55.1,28.24,North,6,0.0,0.0,77,0.00,CLR,,0.00,WeatherDisplay:10.37,2013-09-04 03:20:00,
2013-09-03 23:30:00,62.2,55.6,28.24,East,92,0.0,0.0,79,0.00,CLR,,0.00,WeatherDisplay:10.37,2013-09-04 03:30:00,
2013-09-03 23:40:00,62.2,55.6,28.24,SSE,156,0.0,0.0,79,0.00,CLR,,0.00,WeatherDisplay:10.37,2013-09-04 03:40:00,
2013-09-03 23:50:00,61.9,54.9,28.24,SSE,158,0.0,0.0,78,0.00,CLR,,0.00,WeatherDisplay:10.37,2013-09-04 03:50:00,